Time;durP1;ratioP1;P1;durP2;ratioP2;P2;SDS_P1;SDS_P2;PMS_P1;PMS_P2;Temp;Humidity;BMP_temperature;BMP_pressure;BME280_temperature;BME280_humidity;BME280_pressure;Samples;Min_cycle;Max_cycle;Signal;HPM_P1;HPM_P2
2023/02/22 00:02:09;;;;;;;13.43;6.53;;;8.50;99.90;;;;;;4835226;29;20801;-87
2023/02/22 00:04:38;;;;;;;12.30;4.95;;;8.40;99.90;;;;;;4850405;29;20656;-89
2023/02/22 00:07:06;;;;;;;12.35;5.18;;;8.40;99.90;;;;;;4865216;29;20109;-88
2023/02/22 00:09:33;;;;;;;11.18;5.38;;;8.40;99.90;;;;;;4865525;29;20617;-88
2023/02/22 00:12:01;;;;;;;12.45;5.05;;;8.40;99.90;;;;;;4846581;29;20100;-89
2023/02/22 00:14:28;;;;;;;11.35;5.32;;;8.40;99.90;;;;;;4831390;29;20053;-83
2023/02/22 00:16:58;;;;;;;10.02;4.28;;;8.40;99.90;;;;;;4813112;29;20052;-83
2023/02/22 00:19:28;;;;;;;13.48;4.95;;;8.40;99.90;;;;;;4827125;29;20468;-83
2023/02/22 00:21:56;;;;;;;10.15;4.40;;;8.40;99.90;;;;;;4831922;29;20133;-83
2023/02/22 00:24:23;;;;;;;10.52;4.57;;;8.40;99.90;;;;;;4831307;29;20050;-83
2023/02/22 00:26:54;;;;;;;11.57;5.57;;;8.40;99.90;;;;;;4846406;29;20041;-83
2023/02/22 00:29:23;;;;;;;12.38;5.85;;;8.40;99.90;;;;;;4852421;29;20084;-83
2023/02/22 00:31:50;;;;;;;12.65;5.32;;;8.30;99.90;;;;;;4831193;29;20049;-82
2023/02/22 00:34:17;;;;;;;10.75;4.20;;;8.30;99.90;;;;;;4828186;29;20057;-84
2023/02/22 00:36:48;;;;;;;11.70;4.85;;;8.30;99.90;;;;;;4813730;29;20058;-83
2023/02/22 00:39:15;;;;;;;9.73;4.47;;;8.30;99.90;;;;;;4831044;29;20059;-83
2023/02/22 00:41:42;;;;;;;11.52;5.30;;;8.30;99.90;;;;;;4829834;29;20042;-83
2023/02/22 00:44:10;;;;;;;9.93;4.88;;;8.30;99.90;;;;;;4846072;29;20049;-83
2023/02/22 00:46:38;;;;;;;12.48;5.82;;;8.40;99.90;;;;;;4830683;29;20053;-83
2023/02/22 00:49:05;;;;;;;13.30;5.35;;;8.30;99.90;;;;;;4852609;29;20112;-82
2023/02/22 00:51:32;;;;;;;12.52;4.95;;;8.30;99.90;;;;;;4838783;29;20425;-83
2023/02/22 00:54:00;;;;;;;10.18;4.55;;;8.30;99.90;;;;;;4827718;29;20049;-83
2023/02/22 00:56:27;;;;;;;10.25;5.07;;;8.30;99.90;;;;;;4842918;29;20041;-81
2023/02/22 00:58:54;;;;;;;10.52;5.25;;;8.30;99.90;;;;;;4848933;29;20136;-82
2023/02/22 01:01:22;;;;;;;13.65;5.43;;;8.30;99.90;;;;;;4833463;29;20050;-82
2023/02/22 01:03:50;;;;;;;10.60;5.13;;;8.30;99.90;;;;;;4827548;29;20104;-82
2023/02/22 01:06:18;;;;;;;12.43;5.88;;;8.30;99.90;;;;;;4834365;29;20057;-82
2023/02/22 01:08:46;;;;;;;9.82;5.10;;;8.30;99.90;;;;;;4845334;29;20053;-82
2023/02/22 01:11:14;;;;;;;10.75;4.65;;;8.30;99.90;;;;;;4856616;29;20064;-82
2023/02/22 01:13:44;;;;;;;9.25;4.53;;;8.30;99.90;;;;;;4865748;29;20114;-83
2023/02/22 01:16:11;;;;;;;10.82;4.75;;;8.30;99.90;;;;;;4848823;29;20105;-88
2023/02/22 01:18:38;;;;;;;11.18;5.10;;;8.30;99.90;;;;;;4819805;29;20055;-88
2023/02/22 01:21:05;;;;;;;10.50;4.25;;;8.30;99.90;;;;;;4835001;29;20049;-89
2023/02/22 01:23:34;;;;;;;9.48;4.97;;;8.20;99.90;;;;;;4865127;29;20095;-89
2023/02/22 01:26:04;;;;;;;12.55;5.50;;;8.20;99.90;;;;;;4849971;29;20092;-88
2023/02/22 01:28:32;;;;;;;11.07;4.47;;;8.20;99.90;;;;;;4865011;29;20089;-89
2023/02/22 01:31:01;;;;;;;8.30;3.80;;;8.20;99.90;;;;;;4865197;29;20049;-89
2023/02/22 01:33:29;;;;;;;13.02;6.35;;;8.20;99.90;;;;;;4834968;29;20049;-89
2023/02/22 01:35:56;;;;;;;11.10;4.93;;;8.20;99.90;;;;;;4829068;29;20120;-90
2023/02/22 01:38:24;;;;;;;11.20;4.95;;;8.20;99.90;;;;;;4851941;29;20463;-89
2023/02/22 01:40:51;;;;;;;12.75;6.35;;;8.20;99.90;;;;;;4875001;29;20041;-89
2023/02/22 01:43:22;;;;;;;13.13;5.55;;;8.20;99.90;;;;;;4849975;29;20045;-89
2023/02/22 01:45:56;;;;;;;12.50;5.37;;;8.10;99.90;;;;;;4864653;29;20139;-90
2023/02/22 01:48:44;;;;;;;12.40;5.78;;;8.00;99.90;;;;;;4849609;29;20304;-90
2023/02/22 01:51:18;;;;;;;11.35;5.45;;;8.10;99.90;;;;;;4864375;29;20097;-89
2023/02/22 01:53:54;;;;;;;13.00;5.63;;;8.00;99.90;;;;;;4863708;29;20113;-90
2023/02/22 01:56:24;;;;;;;11.55;5.38;;;8.00;99.90;;;;;;4849460;29;20064;-90
2023/02/22 01:59:02;;;;;;;10.00;4.45;;;8.10;99.90;;;;;;4864237;29;20076;-90
2023/02/22 02:01:29;;;;;;;12.68;5.38;;;8.10;99.90;;;;;;4849363;29;20048;-90
2023/02/22 02:04:00;;;;;;;12.90;5.50;;;8.00;99.90;;;;;;4849417;29;20064;-89
2023/02/22 02:06:32;;;;;;;9.80;4.53;;;8.00;99.90;;;;;;4864295;29;20044;-89
2023/02/22 02:09:19;;;;;;;12.15;4.97;;;8.00;99.90;;;;;;4864577;29;20044;-89
2023/02/22 02:11:47;;;;;;;13.55;6.85;;;8.00;99.90;;;;;;4845798;29;20049;-89
2023/02/22 02:14:14;;;;;;;17.08;7.20;;;7.90;99.90;;;;;;4815860;29;20498;-90
2023/02/22 02:16:52;;;;;;;15.18;6.82;;;7.90;99.90;;;;;;4830646;29;20050;-90
2023/02/22 02:19:26;;;;;;;13.82;6.05;;;7.90;99.90;;;;;;4838194;29;20505;-88
2023/02/22 02:22:31;;;;;;;13.77;6.20;;;7.80;99.90;;;;;;4848732;29;20136;-89
2023/02/22 02:25:26;;;;;;;12.38;5.30;;;7.80;99.90;;;;;;4863466;29;20052;-83
2023/02/22 02:28:08;;;;;;;14.75;6.57;;;7.80;99.90;;;;;;4867672;29;20144;-83
2023/02/22 02:30:56;;;;;;;13.90;5.70;;;7.80;99.90;;;;;;4862340;29;20521;-83
2023/02/22 02:33:45;;;;;;;13.40;5.32;;;7.80;99.90;;;;;;4862949;29;20082;-84
2023/02/22 02:36:32;;;;;;;15.73;6.95;;;7.70;99.90;;;;;;4869081;29;20048;-84
2023/02/22 02:39:21;;;;;;;17.40;7.25;;;7.70;99.90;;;;;;4863869;29;20499;-82
2023/02/22 02:41:50;;;;;;;13.77;6.63;;;7.70;99.90;;;;;;4860200;29;20621;-83
2023/02/22 02:44:34;;;;;;;14.13;6.45;;;7.70;99.90;;;;;;4862919;29;20037;-83
2023/02/22 02:47:07;;;;;;;17.35;6.40;;;7.70;99.90;;;;;;4857868;29;20482;-82
2023/02/22 02:49:53;;;;;;;15.40;6.55;;;7.60;99.90;;;;;;4862488;29;20041;-82
2023/02/22 02:52:23;;;;;;;17.85;7.97;;;7.70;99.90;;;;;;4847220;29;20421;-83
2023/02/22 02:54:52;;;;;;;14.35;6.13;;;7.70;99.90;;;;;;4862403;29;20109;-83
2023/02/22 02:57:19;;;;;;;17.42;7.35;;;7.70;99.90;;;;;;4862220;29;20529;-83
2023/02/22 02:59:46;;;;;;;16.17;7.38;;;7.70;99.90;;;;;;4852832;29;20479;-83
2023/02/22 03:02:19;;;;;;;15.38;6.93;;;7.60;99.90;;;;;;4846933;29;20055;-83
2023/02/22 03:05:08;;;;;;;18.00;6.82;;;7.60;99.90;;;;;;4862331;29;20498;-83
2023/02/22 03:08:03;;;;;;;13.30;5.90;;;7.60;99.90;;;;;;4865987;29;20049;-83
2023/02/22 03:10:45;;;;;;;14.73;6.20;;;7.60;99.90;;;;;;4860203;29;20053;-83
2023/02/22 03:13:24;;;;;;;13.93;5.35;;;7.60;99.90;;;;;;4865964;29;20049;-83
2023/02/22 03:16:01;;;;;;;13.35;6.03;;;7.60;99.90;;;;;;4850786;29;20045;-83
2023/02/22 03:19:06;;;;;;;11.93;5.13;;;7.60;99.90;;;;;;4853995;29;20049;-82
2023/02/22 03:21:49;;;;;;;13.13;5.60;;;7.60;99.90;;;;;;4867679;29;20037;-82
2023/02/22 03:24:28;;;;;;;13.52;6.53;;;7.60;99.90;;;;;;4866250;29;20463;-82
2023/02/22 03:27:12;;;;;;;13.70;5.90;;;7.60;99.90;;;;;;4861603;29;20140;-83
2023/02/22 03:29:45;;;;;;;15.77;6.07;;;7.60;99.90;;;;;;4866313;29;20053;-82
2023/02/22 03:32:21;;;;;;;14.15;5.30;;;7.50;99.90;;;;;;4865744;29;20056;-83
2023/02/22 03:34:59;;;;;;;12.77;5.63;;;7.50;99.90;;;;;;4850454;29;20066;-83
2023/02/22 03:37:32;;;;;;;12.95;5.82;;;7.60;99.90;;;;;;4865662;29;20055;-83
2023/02/22 03:40:13;;;;;;;11.13;5.57;;;7.50;99.90;;;;;;4865786;29;20037;-83
2023/02/22 03:42:52;;;;;;;10.32;3.95;;;7.50;99.90;;;;;;4865836;29;20047;-83
2023/02/22 03:45:23;;;;;;;15.73;6.28;;;7.50;99.90;;;;;;4865277;29;20097;-82
2023/02/22 03:48:03;;;;;;;11.70;5.47;;;7.50;99.90;;;;;;4865492;29;20053;-82
2023/02/22 03:50:34;;;;;;;13.75;6.25;;;7.50;99.90;;;;;;4865362;29;20502;-82
2023/02/22 03:53:03;;;;;;;16.05;6.40;;;7.50;99.90;;;;;;4850220;29;20052;-81
2023/02/22 03:55:33;;;;;;;13.52;5.50;;;7.50;99.90;;;;;;4846578;29;20056;-83
2023/02/22 03:58:08;;;;;;;15.73;7.20;;;7.40;99.90;;;;;;4835500;29;20053;-82
2023/02/22 04:00:35;;;;;;;14.55;6.47;;;7.40;99.90;;;;;;4865510;29;20049;-83
2023/02/22 04:03:03;;;;;;;14.57;5.72;;;7.40;99.90;;;;;;4846688;29;20098;-83
2023/02/22 04:05:30;;;;;;;13.65;6.10;;;7.40;99.90;;;;;;4849970;29;20049;-83
2023/02/22 04:07:58;;;;;;;14.82;6.68;;;7.40;99.90;;;;;;4849871;29;20125;-83
2023/02/22 04:10:26;;;;;;;12.25;5.45;;;7.40;99.90;;;;;;4835887;29;20410;-83
2023/02/22 04:12:53;;;;;;;13.40;5.90;;;7.40;99.90;;;;;;4836686;29;20057;-83
2023/02/22 04:15:23;;;;;;;15.68;5.80;;;7.40;99.90;;;;;;4849631;29;20922;-83
2023/02/22 04:17:55;;;;;;;13.50;6.03;;;7.40;99.90;;;;;;4864354;29;20120;-83
2023/02/22 04:20:24;;;;;;;15.35;6.28;;;7.40;99.90;;;;;;4858474;29;20104;-82
2023/02/22 04:22:57;;;;;;;15.90;6.22;;;7.40;99.90;;;;;;4854121;29;20136;-82
2023/02/22 04:25:25;;;;;;;11.18;5.05;;;7.40;99.90;;;;;;4851468;29;20041;-83
2023/02/22 04:27:52;;;;;;;15.93;6.40;;;7.40;99.90;;;;;;4846808;29;20045;-82
2023/02/22 04:30:33;;;;;;;13.65;6.30;;;7.40;99.90;;;;;;4861791;29;20513;-83
2023/02/22 04:33:01;;;;;;;15.13;6.57;;;7.40;99.90;;;;;;4849854;29;20045;-83
2023/02/22 04:35:28;;;;;;;14.35;6.53;;;7.40;99.90;;;;;;4854569;29;20486;-83
2023/02/22 04:37:57;;;;;;;15.45;6.82;;;7.40;99.90;;;;;;4849705;29;20097;-83
2023/02/22 04:40:24;;;;;;;14.70;6.13;;;7.30;99.90;;;;;;4849428;29;20048;-83
2023/02/22 04:42:51;;;;;;;13.30;5.40;;;7.40;99.90;;;;;;4849506;29;20053;-83
2023/02/22 04:45:18;;;;;;;15.55;6.30;;;7.30;99.90;;;;;;4849194;29;20045;-83
2023/02/22 04:47:46;;;;;;;12.45;5.25;;;7.30;99.90;;;;;;4848000;29;20061;-83
2023/02/22 04:50:15;;;;;;;11.73;5.90;;;7.40;99.90;;;;;;4864193;29;20605;-83
2023/02/22 04:52:42;;;;;;;14.55;6.60;;;7.40;99.90;;;;;;4864602;29;20117;-82
2023/02/22 04:55:10;;;;;;;14.55;6.47;;;7.30;99.90;;;;;;4851134;29;20057;-83
2023/02/22 04:57:37;;;;;;;17.30;6.97;;;7.30;99.90;;;;;;4849034;29;20405;-83
2023/02/22 05:00:09;;;;;;;13.25;6.20;;;7.30;99.90;;;;;;4845737;29;20045;-83
2023/02/22 05:02:39;;;;;;;15.52;7.43;;;7.30;99.90;;;;;;4851689;29;20509;-84
2023/02/22 05:05:07;;;;;;;17.23;6.35;;;7.30;99.90;;;;;;4833674;29;20048;-83
2023/02/22 05:07:34;;;;;;;13.40;5.82;;;7.30;99.90;;;;;;4826958;29;20494;-83
2023/02/22 05:10:01;;;;;;;14.18;7.20;;;7.30;99.90;;;;;;4859717;29;20048;-83
2023/02/22 05:12:28;;;;;;;17.13;7.82;;;7.30;99.90;;;;;;4851710;29;20065;-84
2023/02/22 05:14:55;;;;;;;10.90;5.10;;;7.30;99.90;;;;;;4854176;29;20045;-83
2023/02/22 05:17:22;;;;;;;15.13;7.05;;;7.30;99.90;;;;;;4848757;29;20116;-84
2023/02/22 05:19:49;;;;;;;17.80;8.27;;;7.30;99.90;;;;;;4831878;29;20105;-83
2023/02/22 05:22:19;;;;;;;17.13;8.10;;;7.30;99.90;;;;;;4843109;29;20097;-84
2023/02/22 05:24:46;;;;;;;17.40;7.00;;;7.30;99.90;;;;;;4848645;29;20220;-84
2023/02/22 05:27:13;;;;;;;18.02;7.65;;;7.20;99.90;;;;;;4856659;29;20072;-84
2023/02/22 05:29:40;;;;;;;20.52;9.05;;;7.20;99.90;;;;;;4852603;29;20166;-83
2023/02/22 05:32:07;;;;;;;16.48;8.18;;;7.20;99.90;;;;;;4848451;29;20076;-84
2023/02/22 05:34:34;;;;;;;18.80;8.60;;;7.20;99.90;;;;;;4859747;29;20049;-84
2023/02/22 05:37:02;;;;;;;24.98;10.20;;;7.10;99.90;;;;;;4848616;29;20136;-84
2023/02/22 05:39:29;;;;;;;21.13;9.73;;;7.10;99.90;;;;;;4845386;29;20069;-83
2023/02/22 05:41:56;;;;;;;21.92;10.10;;;7.10;99.90;;;;;;4829838;29;20123;-83
2023/02/22 05:44:24;;;;;;;21.85;9.65;;;7.10;99.90;;;;;;4832947;29;20103;-83
2023/02/22 05:46:51;;;;;;;23.65;9.50;;;7.00;99.90;;;;;;4875994;29;20080;-83
2023/02/22 05:49:18;;;;;;;23.30;11.55;;;7.00;99.90;;;;;;4833126;29;20053;-83
2023/02/22 05:51:45;;;;;;;26.63;12.02;;;7.00;99.90;;;;;;4847532;29;20049;-83
2023/02/22 05:54:12;;;;;;;25.95;12.45;;;7.00;99.90;;;;;;4848399;29;20553;-89
2023/02/22 05:56:39;;;;;;;34.63;14.23;;;7.00;99.90;;;;;;4849375;29;20056;-89
2023/02/22 05:59:06;;;;;;;26.33;10.77;;;6.90;99.90;;;;;;4848288;29;20041;-83
2023/02/22 06:01:33;;;;;;;27.75;11.98;;;6.90;99.90;;;;;;4844815;29;20037;-83
2023/02/22 06:04:00;;;;;;;26.20;10.82;;;7.00;99.90;;;;;;4863142;29;20120;-83
2023/02/22 06:06:29;;;;;;;27.55;11.90;;;6.90;99.90;;;;;;4832933;29;20486;-85
2023/02/22 06:08:56;;;;;;;22.38;9.90;;;7.00;99.90;;;;;;4851298;29;20057;-85
2023/02/22 06:11:23;;;;;;;26.95;12.00;;;7.00;99.90;;;;;;4863520;29;20399;-85
2023/02/22 06:13:51;;;;;;;24.92;9.95;;;7.00;99.90;;;;;;4863198;29;20502;-85
2023/02/22 06:16:20;;;;;;;26.27;10.80;;;7.00;99.90;;;;;;4863164;29;20457;-84
2023/02/22 06:18:48;;;;;;;25.02;10.05;;;6.90;99.90;;;;;;4862553;29;20059;-85
2023/02/22 06:21:16;;;;;;;26.67;10.68;;;6.90;99.90;;;;;;4862887;29;20045;-84
2023/02/22 06:23:50;;;;;;;25.75;10.50;;;6.90;99.90;;;;;;4844624;29;20048;-86
2023/02/22 06:26:18;;;;;;;23.50;10.13;;;6.90;99.90;;;;;;4848922;29;20056;-85
2023/02/22 06:28:45;;;;;;;22.17;10.07;;;6.90;99.90;;;;;;4874611;29;20057;-86
2023/02/22 06:31:13;;;;;;;23.42;10.50;;;6.90;99.90;;;;;;4863089;29;20417;-85
2023/02/22 06:33:40;;;;;;;24.27;10.50;;;6.90;99.90;;;;;;4860502;29;20052;-86
2023/02/22 06:36:08;;;;;;;22.50;9.40;;;6.90;99.90;;;;;;4847795;29;20057;-84
2023/02/22 06:38:35;;;;;;;26.27;10.65;;;6.90;99.90;;;;;;4833493;29;20053;-83
2023/02/22 06:41:02;;;;;;;22.25;9.55;;;6.80;99.90;;;;;;4847035;29;20053;-84
2023/02/22 06:43:29;;;;;;;22.73;9.40;;;6.80;99.90;;;;;;4847282;29;20045;-83
2023/02/22 06:45:56;;;;;;;21.65;9.65;;;6.90;99.90;;;;;;4847278;29;20049;-83
2023/02/22 06:48:23;;;;;;;19.83;8.15;;;6.90;99.90;;;;;;4864666;29;20053;-90
2023/02/22 06:50:50;;;;;;;19.75;7.88;;;6.90;99.90;;;;;;4852024;29;20462;-91
2023/02/22 06:53:17;;;;;;;23.17;9.65;;;6.90;99.90;;;;;;4852269;29;20143;-90
2023/02/22 06:55:44;;;;;;;25.58;9.85;;;6.90;99.90;;;;;;4853873;29;20468;-94
2023/02/22 06:58:11;;;;;;;22.60;9.18;;;6.90;99.90;;;;;;4882624;29;20096;-90
2023/02/22 07:00:38;;;;;;;23.13;9.27;;;6.90;99.90;;;;;;4831729;29;20057;-91
2023/02/22 07:03:09;;;;;;;23.70;9.05;;;6.90;99.90;;;;;;4845172;29;20050;-91
2023/02/22 07:05:37;;;;;;;19.80;7.95;;;6.90;99.90;;;;;;4866228;29;20077;-91
2023/02/22 07:08:06;;;;;;;15.73;7.80;;;6.90;99.90;;;;;;4851700;29;20052;-91
2023/02/22 07:10:35;;;;;;;16.95;8.32;;;6.90;99.90;;;;;;4864353;29;20143;-84
2023/02/22 07:13:04;;;;;;;21.05;8.70;;;6.90;99.90;;;;;;4849017;29;20045;-84
2023/02/22 07:15:33;;;;;;;19.33;8.30;;;6.90;99.90;;;;;;4862236;29;20055;-83
2023/02/22 07:18:00;;;;;;;18.20;8.35;;;6.90;99.90;;;;;;4862608;29;20402;-84
2023/02/22 07:20:32;;;;;;;16.13;7.90;;;7.00;99.90;;;;;;4862423;29;20045;-84
2023/02/22 07:23:02;;;;;;;17.85;7.18;;;7.00;99.90;;;;;;4862277;29;20045;-84
2023/02/22 07:25:30;;;;;;;19.48;8.38;;;7.00;99.90;;;;;;4848383;29;20052;-90
2023/02/22 07:28:00;;;;;;;20.52;9.07;;;7.00;99.90;;;;;;4848508;29;20113;-90
2023/02/22 07:30:32;;;;;;;19.00;8.07;;;7.10;99.90;;;;;;4847368;29;20522;-83
2023/02/22 07:33:03;;;;;;;16.90;8.02;;;7.10;99.90;;;;;;4867528;29;20088;-84
2023/02/22 07:35:36;;;;;;;18.80;7.45;;;7.10;99.90;;;;;;4862376;29;20056;-89
2023/02/22 07:38:09;;;;;;;;;;;7.10;99.90;;;;;;4864045;29;20056;-91
2023/02/22 07:40:37;;;;;;;16.48;6.53;;;7.10;99.90;;;;;;4877905;29;19923;-91
2023/02/22 07:43:22;;;;;;;16.20;7.13;;;7.10;99.90;;;;;;4869179;29;20045;-90
2023/02/22 07:45:53;;;;;;;17.67;8.20;;;7.20;99.90;;;;;;4863224;29;20049;-89
2023/02/22 07:48:22;;;;;;;16.92;7.63;;;7.20;99.90;;;;;;4858531;29;20049;-91
2023/02/22 07:50:50;;;;;;;20.98;7.95;;;7.20;99.90;;;;;;4848413;29;20057;-91
2023/02/22 07:53:21;;;;;;;15.63;6.20;;;7.20;99.90;;;;;;4865783;29;20065;-85
2023/02/22 07:55:51;;;;;;;15.00;6.40;;;7.30;99.90;;;;;;4865304;29;20080;-84
2023/02/22 07:58:21;;;;;;;17.73;8.23;;;7.30;99.90;;;;;;4835712;29;20071;-84
2023/02/22 08:00:49;;;;;;;18.02;6.65;;;7.30;99.90;;;;;;4865633;29;20136;-84
2023/02/22 08:03:18;;;;;;;17.50;7.28;;;7.30;99.90;;;;;;4849906;29;20053;-84
2023/02/22 08:05:51;;;;;;;17.63;7.38;;;7.30;99.90;;;;;;4865369;29;20041;-85
2023/02/22 08:08:18;;;;;;;17.50;7.03;;;7.30;99.90;;;;;;4865202;29;20064;-84
2023/02/22 08:10:46;;;;;;;17.27;7.18;;;7.30;99.90;;;;;;4865396;29;20057;-84
2023/02/22 08:13:14;;;;;;;17.88;7.10;;;7.40;99.90;;;;;;4865572;29;20068;-84
2023/02/22 08:15:43;;;;;;;17.38;8.25;;;7.40;99.90;;;;;;4847046;29;20402;-85
2023/02/22 08:18:12;;;;;;;16.30;6.78;;;7.50;99.90;;;;;;4865058;29;20045;-84
2023/02/22 08:20:42;;;;;;;17.40;6.93;;;7.50;99.90;;;;;;4864807;29;20049;-83
2023/02/22 08:23:11;;;;;;;16.02;6.13;;;7.50;99.90;;;;;;4865209;29;20380;-84
2023/02/22 08:25:38;;;;;;;16.90;6.43;;;7.60;99.90;;;;;;4849702;29;20091;-84
2023/02/22 08:28:12;;;;;;;19.85;6.53;;;7.60;99.90;;;;;;4865483;29;20060;-83
2023/02/22 08:30:41;;;;;;;17.90;7.97;;;7.60;99.90;;;;;;4864423;29;20467;-85
2023/02/22 08:33:13;;;;;;;17.25;6.47;;;7.60;99.90;;;;;;4864488;29;20072;-85
2023/02/22 08:35:40;;;;;;;16.80;6.45;;;7.70;99.90;;;;;;4856024;29;20124;-85
2023/02/22 08:38:15;;;;;;;15.95;6.47;;;7.70;99.90;;;;;;4852947;29;20175;-85
2023/02/22 08:40:42;;;;;;;17.05;6.25;;;7.70;99.90;;;;;;4864267;29;20076;-85
2023/02/22 08:43:10;;;;;;;16.98;6.90;;;7.70;99.90;;;;;;4849350;29;20132;-85
2023/02/22 08:45:36;;;;;;;17.67;6.75;;;7.80;99.90;;;;;;4868395;29;20093;-84
2023/02/22 08:48:04;;;;;;;15.82;6.78;;;7.80;99.90;;;;;;4851396;29;20050;-84
2023/02/22 08:50:35;;;;;;;15.93;6.32;;;7.80;99.90;;;;;;4880783;29;20494;-84
2023/02/22 08:53:03;;;;;;;22.67;9.00;;;7.90;99.90;;;;;;4849051;29;20053;-84
2023/02/22 08:55:35;;;;;;;21.15;8.55;;;7.90;99.90;;;;;;4866450;29;20129;-84
2023/02/22 08:58:04;;;;;;;24.80;10.02;;;7.90;99.90;;;;;;4865757;29;20052;-84
2023/02/22 09:00:32;;;;;;;23.15;9.25;;;7.90;99.90;;;;;;4848945;29;20458;-84
2023/02/22 09:03:01;;;;;;;18.27;8.10;;;7.90;99.90;;;;;;4864046;29;20045;-84
2023/02/22 09:05:29;;;;;;;16.13;6.85;;;8.00;99.90;;;;;;4864083;29;20052;-84
2023/02/22 09:07:58;;;;;;;16.27;7.10;;;8.00;99.90;;;;;;4870101;29;20045;-84
2023/02/22 09:10:29;;;;;;;17.25;7.53;;;8.10;99.90;;;;;;4869109;29;20049;-84
2023/02/22 09:12:59;;;;;;;19.25;7.60;;;8.10;99.90;;;;;;4862143;29;20060;-84
2023/02/22 09:15:27;;;;;;;19.25;7.57;;;8.10;99.90;;;;;;4863205;29;20072;-84
2023/02/22 09:17:55;;;;;;;17.50;6.18;;;8.10;99.90;;;;;;4848010;29;20509;-85
2023/02/22 09:20:23;;;;;;;14.38;6.35;;;8.20;99.90;;;;;;4847901;29;20048;-84
2023/02/22 09:22:51;;;;;;;19.60;7.75;;;8.30;99.90;;;;;;4864597;29;20049;-85
2023/02/22 09:25:21;;;;;;;20.10;8.45;;;8.30;99.80;;;;;;4859696;29;20051;-85
2023/02/22 09:27:52;;;;;;;18.27;7.15;;;8.40;99.80;;;;;;4860270;29;20045;-84
2023/02/22 09:30:27;;;;;;;21.73;8.18;;;8.40;99.80;;;;;;4845138;29;20053;-85
2023/02/22 09:32:56;;;;;;;18.13;7.07;;;8.50;99.70;;;;;;4864728;29;20048;-84
2023/02/22 09:35:25;;;;;;;17.55;7.95;;;8.50;99.70;;;;;;4857604;29;20049;-84
2023/02/22 09:37:58;;;;;;;18.50;7.63;;;8.60;99.70;;;;;;4863389;29;20057;-84
2023/02/22 09:40:28;;;;;;;16.95;7.05;;;8.60;99.60;;;;;;4862534;29;20048;-84
2023/02/22 09:43:24;;;;;;;17.90;8.25;;;8.70;99.60;;;;;;4859149;29;20045;-84
2023/02/22 09:46:12;;;;;;;20.30;8.40;;;8.70;99.50;;;;;;4863672;29;20130;-84
2023/02/22 09:49:05;;;;;;;19.48;7.63;;;8.80;99.40;;;;;;4863386;29;20064;-84
2023/02/22 09:51:41;;;;;;;19.83;8.63;;;8.80;99.40;;;;;;4847990;29;20045;-85
2023/02/22 09:54:43;;;;;;;22.13;9.18;;;8.80;99.40;;;;;;4852645;29;20075;-84
2023/02/22 09:57:16;;;;;;;19.20;8.13;;;8.90;99.30;;;;;;4863361;29;20518;-83
2023/02/22 10:00:11;;;;;;;21.55;10.45;;;8.90;99.20;;;;;;4857233;29;20080;-84
2023/02/22 10:03:16;;;;;;;19.65;8.52;;;9.00;99.20;;;;;;4866620;29;20101;-85
2023/02/22 10:06:09;;;;;;;18.73;8.27;;;9.00;99.10;;;;;;4863550;29;20105;-84
2023/02/22 10:08:38;;;;;;;19.58;8.48;;;9.10;99.10;;;;;;4863440;29;20049;-85
2023/02/22 10:11:14;;;;;;;15.30;7.45;;;9.10;99.00;;;;;;4850071;29;20494;-85
2023/02/22 10:13:56;;;;;;;19.17;7.90;;;9.20;99.00;;;;;;4866860;29;20049;-85
2023/02/22 10:16:43;;;;;;;17.87;7.00;;;9.20;99.00;;;;;;4847106;29;20053;-83
2023/02/22 10:19:40;;;;;;;16.88;7.65;;;9.30;99.00;;;;;;4862948;29;20361;-84
2023/02/22 10:22:25;;;;;;;;;;;9.40;99.00;;;;;;4868495;29;20045;-84
2023/02/22 10:25:06;;;;;;;15.98;6.60;;;9.30;99.00;;;;;;4863007;29;20395;-85
2023/02/22 10:27:41;;;;;;;13.05;6.25;;;9.40;98.90;;;;;;4862804;29;20105;-84
2023/02/22 10:30:22;;;;;;;16.45;7.30;;;9.40;98.80;;;;;;4862081;29;20056;-84
2023/02/22 10:33:00;;;;;;;16.67;7.32;;;9.40;98.70;;;;;;4862630;29;20069;-84
2023/02/22 10:35:33;;;;;;;15.27;7.40;;;9.40;98.80;;;;;;4847455;29;20053;-85
2023/02/22 10:38:25;;;;;;;15.77;7.40;;;9.40;98.80;;;;;;4862724;29;20045;-85
2023/02/22 10:41:05;;;;;;;18.10;7.68;;;9.40;98.70;;;;;;4862353;29;20485;-85
2023/02/22 10:43:33;;;;;;;21.85;9.18;;;9.40;98.70;;;;;;4845103;29;20048;-84
2023/02/22 10:46:03;;;;;;;14.80;7.55;;;9.50;98.70;;;;;;4847406;29;20474;-84
2023/02/22 10:48:34;;;;;;;19.25;8.48;;;9.60;98.70;;;;;;4859160;29;20093;-89
2023/02/22 10:51:04;;;;;;;16.50;7.00;;;9.60;98.60;;;;;;4859944;29;20045;-91
2023/02/22 10:53:32;;;;;;;19.33;9.13;;;9.70;98.60;;;;;;4840996;29;20148;-90
2023/02/22 10:56:20;;;;;;;16.58;7.75;;;9.80;98.50;;;;;;4864074;29;20037;-90
2023/02/22 10:59:03;;;;;;;14.30;7.47;;;9.80;98.30;;;;;;4862627;29;20045;-88
2023/02/22 11:01:30;;;;;;;14.43;7.05;;;9.90;98.30;;;;;;4861971;29;20041;-88
2023/02/22 11:04:03;;;;;;;21.02;9.40;;;9.90;98.30;;;;;;4862539;29;20045;-90
2023/02/22 11:06:33;;;;;;;14.63;6.80;;;10.00;98.30;;;;;;4862686;29;20037;-83
2023/02/22 11:09:16;;;;;;;18.15;7.95;;;10.10;98.20;;;;;;4862587;29;20147;-86
2023/02/22 11:12:21;;;;;;;24.08;8.70;;;10.20;98.10;;;;;;4862995;29;20061;-89
2023/02/22 11:14:48;;;;;;;20.52;8.82;;;10.20;97.90;;;;;;4862730;29;20056;-87
2023/02/22 11:17:21;;;;;;;21.50;9.63;;;10.20;98.00;;;;;;4847584;29;20428;-86
2023/02/22 11:19:48;;;;;;;;;;;10.20;98.00;;;;;;4847578;29;20132;-87
2023/02/22 11:22:25;;;;;;;17.77;7.63;;;10.20;98.10;;;;;;4856678;29;20315;-85
2023/02/22 11:24:56;;;;;;;17.42;6.90;;;10.20;98.10;;;;;;4860204;29;20045;-86
2023/02/22 11:27:45;;;;;;;15.23;6.95;;;10.20;98.10;;;;;;4864180;29;20052;-85
2023/02/22 11:30:29;;;;;;;14.55;6.90;;;10.30;98.00;;;;;;4865454;29;20414;-86
2023/02/22 11:33:14;;;;;;;14.02;5.93;;;10.30;97.90;;;;;;4865633;29;20048;-86
2023/02/22 11:35:54;;;;;;;13.27;5.88;;;10.30;97.90;;;;;;4849915;29;20148;-85
2023/02/22 11:38:30;;;;;;;15.00;6.60;;;10.30;97.90;;;;;;4851114;29;20058;-85
2023/02/22 11:41:27;;;;;;;13.43;6.13;;;10.40;97.90;;;;;;4862029;29;20045;-86
2023/02/22 11:44:21;;;;;;;19.98;9.32;;;10.40;97.80;;;;;;4864277;29;20052;-91
2023/02/22 11:46:49;;;;;;;23.10;9.88;;;10.50;97.60;;;;;;4866536;29;20049;-84
2023/02/22 11:49:17;;;;;;;20.02;9.93;;;10.40;97.50;;;;;;4850648;29;20064;-83
2023/02/22 11:52:15;;;;;;;21.13;9.68;;;10.50;97.50;;;;;;4850291;29;20072;-84
2023/02/22 11:54:58;;;;;;;19.20;8.63;;;10.50;97.50;;;;;;4852896;29;20131;-84
2023/02/22 11:57:55;;;;;;;16.85;8.73;;;10.60;97.40;;;;;;4865782;29;20465;-84
2023/02/22 12:00:33;;;;;;;17.38;8.00;;;10.60;97.40;;;;;;4836618;29;20089;-84
2023/02/22 12:03:27;;;;;;;15.88;7.72;;;10.60;97.40;;;;;;4868038;29;20072;-84
2023/02/22 12:06:00;;;;;;;16.45;8.13;;;10.60;97.40;;;;;;4850094;29;20060;-84
2023/02/22 12:08:45;;;;;;;15.65;7.95;;;10.60;97.40;;;;;;4865654;29;20420;-85
2023/02/22 12:11:24;;;;;;;15.23;7.85;;;10.70;97.30;;;;;;4853845;29;20412;-89
2023/02/22 12:14:07;;;;;;;14.15;6.95;;;10.70;97.30;;;;;;4866133;29;20073;-90
2023/02/22 12:16:42;;;;;;;;;;;10.80;97.20;;;;;;4865532;29;20075;-82
2023/02/22 12:19:24;;;;;;;13.63;6.75;;;10.80;97.30;;;;;;4864964;29;20365;-87
2023/02/22 12:22:01;;;;;;;13.00;5.85;;;10.90;97.30;;;;;;4851463;29;20049;-83
2023/02/22 12:24:41;;;;;;;11.85;5.30;;;11.00;97.20;;;;;;4875257;29;20112;-85
2023/02/22 12:27:37;;;;;;;8.90;4.80;;;11.10;97.10;;;;;;4850113;29;20045;-83
2023/02/22 12:30:12;;;;;;;9.07;4.70;;;11.30;97.10;;;;;;4844300;29;20060;-86
2023/02/22 12:32:45;;;;;;;9.93;4.57;;;11.40;97.00;;;;;;4861366;29;20132;-83
2023/02/22 12:35:12;;;;;;;12.98;5.72;;;11.40;96.90;;;;;;4881273;29;20063;-83
2023/02/22 12:38:03;;;;;;;11.45;5.32;;;11.50;96.90;;;;;;4864666;29;20060;-83
2023/02/22 12:40:36;;;;;;;11.02;5.05;;;11.50;96.80;;;;;;4861844;29;20097;-82
2023/02/22 12:43:15;;;;;;;10.52;5.35;;;11.50;96.90;;;;;;4846809;29;20052;-86
2023/02/22 12:46:05;;;;;;;10.75;5.05;;;11.60;96.90;;;;;;4862613;29;20052;-84
2023/02/22 12:48:57;;;;;;;9.50;4.38;;;11.60;96.80;;;;;;4852242;29;20049;-86
2023/02/22 12:51:58;;;;;;;10.38;4.68;;;11.60;96.70;;;;;;4864221;29;20079;-82
2023/02/22 12:54:40;;;;;;;9.48;4.55;;;11.60;96.70;;;;;;4860036;29;20521;-84
2023/02/22 12:57:15;;;;;;;9.00;4.95;;;11.50;96.70;;;;;;4867621;29;20135;-83
2023/02/22 12:59:45;;;;;;;10.38;4.32;;;11.50;96.80;;;;;;4865578;29;20041;-82
2023/02/22 13:02:38;;;;;;;10.57;5.15;;;11.60;96.80;;;;;;4864530;29;20119;-90
2023/02/22 13:05:19;;;;;;;10.32;5.45;;;11.70;96.70;;;;;;4866073;29;20037;-89
2023/02/22 13:08:20;;;;;;;10.23;4.75;;;11.70;96.60;;;;;;4852415;29;20096;-89
2023/02/22 13:11:03;;;;;;;9.70;4.65;;;11.70;96.50;;;;;;4863642;29;20128;-89
2023/02/22 13:13:56;;;;;;;;;;;;;;;;;;;;;
2023/02/22 13:16:29;;;;;;;10.20;5.22;;;11.70;96.50;;;;;;4868427;29;20137;-91
2023/02/22 13:19:10;;;;;;;11.93;6.20;;;11.70;96.50;;;;;;4842283;29;20140;-89
2023/02/22 13:21:47;;;;;;;10.90;5.22;;;11.70;96.50;;;;;;4864726;29;20053;-89